sensor_id;sensor_type;location;lat;lon;timestamp;temperature;humidity
9544;DHT22;30418;51.45933468;7.33152330;2023-06-10T00:01:24;26.60;42.20
9544;DHT22;30418;51.45933468;7.33152330;2023-06-10T00:03:53;26.60;42.30
9544;DHT22;30418;51.45933468;7.33152330;2023-06-10T00:06:21;26.50;42.30
9544;DHT22;30418;51.45933468;7.33152330;2023-06-10T00:08:51;26.50;42.30
9544;DHT22;30418;51.45933468;7.33152330;2023-06-10T00:11:21;26.50;42.30
9544;DHT22;30418;51.45933468;7.33152330;2023-06-10T00:13:51;26.50;42.40
9544;DHT22;30418;51.45933468;7.33152330;2023-06-10T00:16:20;26.40;43.10
9544;DHT22;30418;51.45933468;7.33152330;2023-06-10T00:18:49;26.40;42.50
9544;DHT22;30418;51.45933468;7.33152330;2023-06-10T00:21:19;26.40;42.50
9544;DHT22;30418;51.45933468;7.33152330;2023-06-10T00:23:47;26.30;42.50
9544;DHT22;30418;51.45933468;7.33152330;2023-06-10T00:26:16;26.30;42.60
9544;DHT22;30418;51.45933468;7.33152330;2023-06-10T00:28:45;26.30;42.60
9544;DHT22;30418;51.45933468;7.33152330;2023-06-10T00:31:16;26.20;42.70
9544;DHT22;30418;51.45933468;7.33152330;2023-06-10T00:33:44;26.20;42.80
9544;DHT22;30418;51.45933468;7.33152330;2023-06-10T00:36:13;26.20;42.90
9544;DHT22;30418;51.45933468;7.33152330;2023-06-10T00:38:42;26.20;42.90
9544;DHT22;30418;51.45933468;7.33152330;2023-06-10T00:41:10;26.10;43.00
9544;DHT22;30418;51.45933468;7.33152330;2023-06-10T00:43:39;26.10;43.10
9544;DHT22;30418;51.45933468;7.33152330;2023-06-10T00:46:08;26.10;43.80
9544;DHT22;30418;51.45933468;7.33152330;2023-06-10T00:48:40;26.00;43.10
9544;DHT22;30418;51.45933468;7.33152330;2023-06-10T00:51:10;26.00;43.30
9544;DHT22;30418;51.45933468;7.33152330;2023-06-10T00:53:40;25.90;43.20
9544;DHT22;30418;51.45933468;7.33152330;2023-06-10T00:56:09;25.90;43.30
9544;DHT22;30418;51.45933468;7.33152330;2023-06-10T00:58:38;25.90;43.40
9544;DHT22;30418;51.45933468;7.33152330;2023-06-10T01:01:07;25.80;43.40
9544;DHT22;30418;51.45933468;7.33152330;2023-06-10T01:03:40;25.80;43.60
9544;DHT22;30418;51.45933468;7.33152330;2023-06-10T01:06:15;25.70;43.70
9544;DHT22;30418;51.45933468;7.33152330;2023-06-10T01:08:57;25.70;43.90
9544;DHT22;30418;51.45933468;7.33152330;2023-06-10T01:11:36;25.70;44.10
9544;DHT22;30418;51.45933468;7.33152330;2023-06-10T01:14:09;25.70;44.30
9544;DHT22;30418;51.45933468;7.33152330;2023-06-10T01:16:39;25.60;44.00
9544;DHT22;30418;51.45933468;7.33152330;2023-06-10T01:19:11;25.60;44.20
9544;DHT22;30418;51.45933468;7.33152330;2023-06-10T01:21:43;25.60;44.30
9544;DHT22;30418;51.45933468;7.33152330;2023-06-10T01:24:18;25.60;44.30
9544;DHT22;30418;51.45933468;7.33152330;2023-06-10T01:26:49;25.60;45.00
9544;DHT22;30418;51.45933468;7.33152330;2023-06-10T01:29:23;25.60;44.30
9544;DHT22;30418;51.45933468;7.33152330;2023-06-10T01:32:03;25.60;44.50
9544;DHT22;30418;51.45933468;7.33152330;2023-06-10T01:34:37;25.60;44.80
9544;DHT22;30418;51.45933468;7.33152330;2023-06-10T01:37:09;25.50;44.50
9544;DHT22;30418;51.45933468;7.33152330;2023-06-10T01:39:39;25.40;44.60
9544;DHT22;30418;51.45933468;7.33152330;2023-06-10T01:42:10;25.40;44.50
9544;DHT22;30418;51.45933468;7.33152330;2023-06-10T01:44:39;25.40;44.70
9544;DHT22;30418;51.45933468;7.33152330;2023-06-10T01:47:09;25.40;44.70
9544;DHT22;30418;51.45933468;7.33152330;2023-06-10T01:49:37;25.30;44.80
9544;DHT22;30418;51.45933468;7.33152330;2023-06-10T01:52:09;25.30;44.90
9544;DHT22;30418;51.45933468;7.33152330;2023-06-10T01:54:37;25.30;44.90
9544;DHT22;30418;51.45933468;7.33152330;2023-06-10T01:57:06;25.30;45.00
9544;DHT22;30418;51.45933468;7.33152330;2023-06-10T01:59:34;25.30;45.10
9544;DHT22;30418;51.45933468;7.33152330;2023-06-10T02:02:03;25.30;45.20
9544;DHT22;30418;51.45933468;7.33152330;2023-06-10T02:04:33;25.20;45.20
9544;DHT22;30418;51.45933468;7.33152330;2023-06-10T02:07:02;25.20;45.10
9544;DHT22;30418;51.45933468;7.33152330;2023-06-10T02:09:34;25.20;45.20
9544;DHT22;30418;51.45933468;7.33152330;2023-06-10T02:12:04;25.10;45.20
9544;DHT22;30418;51.45933468;7.33152330;2023-06-10T02:14:34;25.10;45.30
9544;DHT22;30418;51.45933468;7.33152330;2023-06-10T02:17:03;25.10;45.40
9544;DHT22;30418;51.45933468;7.33152330;2023-06-10T02:19:32;25.10;45.40
9544;DHT22;30418;51.45933468;7.33152330;2023-06-10T02:22:04;25.10;45.50
9544;DHT22;30418;51.45933468;7.33152330;2023-06-10T02:24:35;25.00;45.50
9544;DHT22;30418;51.45933468;7.33152330;2023-06-10T02:27:04;25.00;45.60
9544;DHT22;30418;51.45933468;7.33152330;2023-06-10T02:29:34;25.00;45.70
9544;DHT22;30418;51.45933468;7.33152330;2023-06-10T02:32:05;25.00;45.70
9544;DHT22;30418;51.45933468;7.33152330;2023-06-10T02:34:37;25.00;45.80
9544;DHT22;30418;51.45933468;7.33152330;2023-06-10T02:37:07;25.00;45.80
9544;DHT22;30418;51.45933468;7.33152330;2023-06-10T02:39:37;24.90;45.70
9544;DHT22;30418;51.45933468;7.33152330;2023-06-10T02:42:09;24.90;45.90
9544;DHT22;30418;51.45933468;7.33152330;2023-06-10T02:44:38;24.90;45.90
9544;DHT22;30418;51.45933468;7.33152330;2023-06-10T02:47:11;24.80;45.90
9544;DHT22;30418;51.45933468;7.33152330;2023-06-10T02:49:40;24.80;45.90
9544;DHT22;30418;51.45933468;7.33152330;2023-06-10T02:52:09;24.80;46.10
9544;DHT22;30418;51.45933468;7.33152330;2023-06-10T02:54:40;24.80;46.10
9544;DHT22;30418;51.45933468;7.33152330;2023-06-10T02:57:10;24.70;46.20
9544;DHT22;30418;51.45933468;7.33152330;2023-06-10T02:59:38;24.70;46.90
9544;DHT22;30418;51.45933468;7.33152330;2023-06-10T03:02:08;24.70;46.30
9544;DHT22;30418;51.45933468;7.33152330;2023-06-10T03:04:42;24.60;46.20
9544;DHT22;30418;51.45933468;7.33152330;2023-06-10T03:07:16;24.60;46.20
9544;DHT22;30418;51.45933468;7.33152330;2023-06-10T03:09:47;24.60;46.30
9544;DHT22;30418;51.45933468;7.33152330;2023-06-10T03:12:16;24.60;46.40
9544;DHT22;30418;51.45933468;7.33152330;2023-06-10T03:14:47;24.60;46.50
9544;DHT22;30418;51.45933468;7.33152330;2023-06-10T03:17:17;24.50;46.50
9544;DHT22;30418;51.45933468;7.33152330;2023-06-10T03:19:46;24.50;46.50
9544;DHT22;30418;51.45933468;7.33152330;2023-06-10T03:22:16;24.50;46.60
9544;DHT22;30418;51.45933468;7.33152330;2023-06-10T03:24:57;24.50;46.70
9544;DHT22;30418;51.45933468;7.33152330;2023-06-10T03:27:28;24.50;46.70
9544;DHT22;30418;51.45933468;7.33152330;2023-06-10T03:30:00;24.50;46.70
9544;DHT22;30418;51.45933468;7.33152330;2023-06-10T03:32:29;24.50;46.80
9544;DHT22;30418;51.45933468;7.33152330;2023-06-10T03:34:58;24.50;46.70
9544;DHT22;30418;51.45933468;7.33152330;2023-06-10T03:37:29;24.40;46.70
9544;DHT22;30418;51.45933468;7.33152330;2023-06-10T03:39:59;24.40;46.70
9544;DHT22;30418;51.45933468;7.33152330;2023-06-10T03:42:30;24.40;46.90
9544;DHT22;30418;51.45933468;7.33152330;2023-06-10T03:44:59;24.30;46.90
9544;DHT22;30418;51.45933468;7.33152330;2023-06-10T03:47:33;24.30;47.00
9544;DHT22;30418;51.45933468;7.33152330;2023-06-10T03:50:06;24.30;47.10
9544;DHT22;30418;51.45933468;7.33152330;2023-06-10T03:52:38;24.30;47.10
9544;DHT22;30418;51.45933468;7.33152330;2023-06-10T03:55:10;24.30;47.20
9544;DHT22;30418;51.45933468;7.33152330;2023-06-10T03:57:43;24.30;47.30
9544;DHT22;30418;51.45933468;7.33152330;2023-06-10T04:00:13;24.30;47.30
9544;DHT22;30418;51.45933468;7.33152330;2023-06-10T04:02:42;24.30;47.40
9544;DHT22;30418;51.45933468;7.33152330;2023-06-10T04:05:36;24.30;47.50
9544;DHT22;30418;51.45933468;7.33152330;2023-06-10T04:08:04;24.20;47.40
9544;DHT22;30418;51.45933468;7.33152330;2023-06-10T04:10:35;24.20;47.50
9544;DHT22;30418;51.45933468;7.33152330;2023-06-10T04:13:03;24.20;47.50
9544;DHT22;30418;51.45933468;7.33152330;2023-06-10T04:15:38;24.20;47.50
9544;DHT22;30418;51.45933468;7.33152330;2023-06-10T04:18:11;24.20;47.50
9544;DHT22;30418;51.45933468;7.33152330;2023-06-10T04:20:40;24.20;47.60
9544;DHT22;30418;51.45933468;7.33152330;2023-06-10T04:23:08;24.20;47.60
9544;DHT22;30418;51.45933468;7.33152330;2023-06-10T04:25:42;24.10;47.70
9544;DHT22;30418;51.45933468;7.33152330;2023-06-10T04:28:11;24.10;47.80
9544;DHT22;30418;51.45933468;7.33152330;2023-06-10T04:30:41;24.10;47.80
9544;DHT22;30418;51.45933468;7.33152330;2023-06-10T04:33:11;24.10;47.80
9544;DHT22;30418;51.45933468;7.33152330;2023-06-10T04:35:40;24.10;47.90
9544;DHT22;30418;51.45933468;7.33152330;2023-06-10T04:38:13;24.10;47.90
9544;DHT22;30418;51.45933468;7.33152330;2023-06-10T04:40:43;24.10;48.00
9544;DHT22;30418;51.45933468;7.33152330;2023-06-10T04:43:15;24.10;48.10
9544;DHT22;30418;51.45933468;7.33152330;2023-06-10T04:45:45;24.10;48.00
9544;DHT22;30418;51.45933468;7.33152330;2023-06-10T04:48:14;24.10;48.10
9544;DHT22;30418;51.45933468;7.33152330;2023-06-10T04:50:42;24.10;48.20
9544;DHT22;30418;51.45933468;7.33152330;2023-06-10T04:53:11;24.10;48.20
9544;DHT22;30418;51.45933468;7.33152330;2023-06-10T04:55:46;24.10;48.20
9544;DHT22;30418;51.45933468;7.33152330;2023-06-10T04:58:15;24.10;48.20
9544;DHT22;30418;51.45933468;7.33152330;2023-06-10T05:00:43;24.10;48.00
9544;DHT22;30418;51.45933468;7.33152330;2023-06-10T05:03:12;24.10;48.00
9544;DHT22;30418;51.45933468;7.33152330;2023-06-10T05:05:41;24.00;48.00
9544;DHT22;30418;51.45933468;7.33152330;2023-06-10T05:08:09;24.00;48.00
9544;DHT22;30418;51.45933468;7.33152330;2023-06-10T05:10:38;24.00;48.10
9544;DHT22;30418;51.45933468;7.33152330;2023-06-10T05:13:08;24.00;48.10
9544;DHT22;30418;51.45933468;7.33152330;2023-06-10T05:15:37;24.10;48.20
9544;DHT22;30418;51.45933468;7.33152330;2023-06-10T05:18:05;24.00;48.00
9544;DHT22;30418;51.45933468;7.33152330;2023-06-10T05:20:34;24.10;48.20
9544;DHT22;30418;51.45933468;7.33152330;2023-06-10T05:23:03;24.10;48.10
9544;DHT22;30418;51.45933468;7.33152330;2023-06-10T05:25:32;24.00;48.00
9544;DHT22;30418;51.45933468;7.33152330;2023-06-10T05:28:00;24.10;48.20
9544;DHT22;30418;51.45933468;7.33152330;2023-06-10T05:30:31;24.10;48.10
9544;DHT22;30418;51.45933468;7.33152330;2023-06-10T05:32:59;24.10;48.00
9544;DHT22;30418;51.45933468;7.33152330;2023-06-10T05:35:28;24.10;48.00
9544;DHT22;30418;51.45933468;7.33152330;2023-06-10T05:37:56;24.10;48.00
9544;DHT22;30418;51.45933468;7.33152330;2023-06-10T05:40:29;24.10;48.00
9544;DHT22;30418;51.45933468;7.33152330;2023-06-10T05:42:58;24.20;48.10
9544;DHT22;30418;51.45933468;7.33152330;2023-06-10T05:45:27;24.20;48.10
9544;DHT22;30418;51.45933468;7.33152330;2023-06-10T05:47:57;24.20;48.00
9544;DHT22;30418;51.45933468;7.33152330;2023-06-10T05:50:26;24.20;48.00
9544;DHT22;30418;51.45933468;7.33152330;2023-06-10T05:52:55;24.20;47.90
9544;DHT22;30418;51.45933468;7.33152330;2023-06-10T05:55:24;24.30;48.00
9544;DHT22;30418;51.45933468;7.33152330;2023-06-10T05:57:58;24.30;48.00
9544;DHT22;30418;51.45933468;7.33152330;2023-06-10T06:00:27;24.30;48.10
9544;DHT22;30418;51.45933468;7.33152330;2023-06-10T06:02:57;24.30;48.00
9544;DHT22;30418;51.45933468;7.33152330;2023-06-10T06:05:26;24.30;47.90
9544;DHT22;30418;51.45933468;7.33152330;2023-06-10T06:07:54;24.40;47.90
9544;DHT22;30418;51.45933468;7.33152330;2023-06-10T06:10:23;24.40;47.80
9544;DHT22;30418;51.45933468;7.33152330;2023-06-10T06:12:52;24.40;47.80
9544;DHT22;30418;51.45933468;7.33152330;2023-06-10T06:15:20;24.40;47.70
9544;DHT22;30418;51.45933468;7.33152330;2023-06-10T06:17:48;24.40;47.60
9544;DHT22;30418;51.45933468;7.33152330;2023-06-10T06:20:19;24.40;47.60
9544;DHT22;30418;51.45933468;7.33152330;2023-06-10T06:22:48;24.40;47.60
9544;DHT22;30418;51.45933468;7.33152330;2023-06-10T06:25:16;24.40;47.50
9544;DHT22;30418;51.45933468;7.33152330;2023-06-10T06:27:45;24.40;47.40
9544;DHT22;30418;51.45933468;7.33152330;2023-06-10T06:30:14;24.40;47.50
9544;DHT22;30418;51.45933468;7.33152330;2023-06-10T06:32:42;24.40;47.60
9544;DHT22;30418;51.45933468;7.33152330;2023-06-10T06:35:11;24.50;47.60
9544;DHT22;30418;51.45933468;7.33152330;2023-06-10T06:37:41;24.50;47.60
9544;DHT22;30418;51.45933468;7.33152330;2023-06-10T06:40:17;24.50;47.60
9544;DHT22;30418;51.45933468;7.33152330;2023-06-10T06:42:46;24.60;48.10
9544;DHT22;30418;51.45933468;7.33152330;2023-06-10T06:45:21;24.60;47.50
9544;DHT22;30418;51.45933468;7.33152330;2023-06-10T06:47:50;24.60;47.50
9544;DHT22;30418;51.45933468;7.33152330;2023-06-10T06:50:19;24.60;47.60
9544;DHT22;30418;51.45933468;7.33152330;2023-06-10T06:52:50;24.60;47.60
9544;DHT22;30418;51.45933468;7.33152330;2023-06-10T06:55:18;24.70;47.60
9544;DHT22;30418;51.45933468;7.33152330;2023-06-10T06:57:47;24.70;47.60
9544;DHT22;30418;51.45933468;7.33152330;2023-06-10T07:00:17;24.70;47.60
9544;DHT22;30418;51.45933468;7.33152330;2023-06-10T07:02:46;24.70;47.60
9544;DHT22;30418;51.45933468;7.33152330;2023-06-10T07:05:14;24.80;47.60
9544;DHT22;30418;51.45933468;7.33152330;2023-06-10T07:07:44;24.80;47.80
9544;DHT22;30418;51.45933468;7.33152330;2023-06-10T07:10:14;24.80;47.70
9544;DHT22;30418;51.45933468;7.33152330;2023-06-10T07:12:43;24.80;47.80
9544;DHT22;30418;51.45933468;7.33152330;2023-06-10T07:15:11;24.90;47.80
9544;DHT22;30418;51.45933468;7.33152330;2023-06-10T07:17:39;24.90;47.80
9544;DHT22;30418;51.45933468;7.33152330;2023-06-10T07:20:11;24.90;47.70
9544;DHT22;30418;51.45933468;7.33152330;2023-06-10T07:22:42;25.00;47.80
9544;DHT22;30418;51.45933468;7.33152330;2023-06-10T07:25:10;25.00;47.80
9544;DHT22;30418;51.45933468;7.33152330;2023-06-10T07:27:40;25.00;47.60
9544;DHT22;30418;51.45933468;7.33152330;2023-06-10T07:30:10;25.00;47.60
9544;DHT22;30418;51.45933468;7.33152330;2023-06-10T07:32:39;25.00;47.60
9544;DHT22;30418;51.45933468;7.33152330;2023-06-10T07:35:09;25.00;47.60
9544;DHT22;30418;51.45933468;7.33152330;2023-06-10T07:37:39;25.10;47.70
9544;DHT22;30418;51.45933468;7.33152330;2023-06-10T07:40:08;25.10;47.70
9544;DHT22;30418;51.45933468;7.33152330;2023-06-10T07:42:37;25.10;47.60
9544;DHT22;30418;51.45933468;7.33152330;2023-06-10T07:45:08;25.20;47.80
9544;DHT22;30418;51.45933468;7.33152330;2023-06-10T07:47:38;25.20;47.80
9544;DHT22;30418;51.45933468;7.33152330;2023-06-10T07:50:07;25.30;47.80
9544;DHT22;30418;51.45933468;7.33152330;2023-06-10T07:52:36;25.40;47.80
9544;DHT22;30418;51.45933468;7.33152330;2023-06-10T07:55:05;25.40;47.80
9544;DHT22;30418;51.45933468;7.33152330;2023-06-10T07:57:35;25.40;47.70
9544;DHT22;30418;51.45933468;7.33152330;2023-06-10T08:00:08;25.50;48.20
9544;DHT22;30418;51.45933468;7.33152330;2023-06-10T08:02:40;25.60;47.60
9544;DHT22;30418;51.45933468;7.33152330;2023-06-10T08:05:08;25.70;47.60
9544;DHT22;30418;51.45933468;7.33152330;2023-06-10T08:07:38;25.70;47.50
9544;DHT22;30418;51.45933468;7.33152330;2023-06-10T08:10:08;25.80;47.60
9544;DHT22;30418;51.45933468;7.33152330;2023-06-10T08:12:37;25.90;47.50
9544;DHT22;30418;51.45933468;7.33152330;2023-06-10T08:15:08;26.00;47.40
9544;DHT22;30418;51.45933468;7.33152330;2023-06-10T08:17:38;26.00;47.20
9544;DHT22;30418;51.45933468;7.33152330;2023-06-10T08:20:07;26.10;47.20
9544;DHT22;30418;51.45933468;7.33152330;2023-06-10T08:22:36;26.20;47.30
9544;DHT22;30418;51.45933468;7.33152330;2023-06-10T08:25:06;26.30;47.30
9544;DHT22;30418;51.45933468;7.33152330;2023-06-10T08:27:35;26.40;47.40
9544;DHT22;30418;51.45933468;7.33152330;2023-06-10T08:30:05;26.50;47.40
9544;DHT22;30418;51.45933468;7.33152330;2023-06-10T08:32:37;26.50;47.40
9544;DHT22;30418;51.45933468;7.33152330;2023-06-10T08:35:06;26.60;47.20
9544;DHT22;30418;51.45933468;7.33152330;2023-06-10T08:37:36;26.70;47.10
9544;DHT22;30418;51.45933468;7.33152330;2023-06-10T08:40:05;26.80;46.80
9544;DHT22;30418;51.45933468;7.33152330;2023-06-10T08:42:39;26.90;46.80
9544;DHT22;30418;51.45933468;7.33152330;2023-06-10T08:45:16;26.90;46.60
9544;DHT22;30418;51.45933468;7.33152330;2023-06-10T08:47:49;27.00;46.50
9544;DHT22;30418;51.45933468;7.33152330;2023-06-10T08:50:21;27.10;46.50
9544;DHT22;30418;51.45933468;7.33152330;2023-06-10T08:52:54;27.10;46.60
9544;DHT22;30418;51.45933468;7.33152330;2023-06-10T08:55:29;27.30;46.60
9544;DHT22;30418;51.45933468;7.33152330;2023-06-10T08:57:59;27.30;46.60
9544;DHT22;30418;51.45933468;7.33152330;2023-06-10T09:00:29;27.40;46.30
9544;DHT22;30418;51.45933468;7.33152330;2023-06-10T09:03:00;27.40;46.20
9544;DHT22;30418;51.45933468;7.33152330;2023-06-10T09:05:33;27.50;46.00
9544;DHT22;30418;51.45933468;7.33152330;2023-06-10T09:08:04;27.50;46.00
9544;DHT22;30418;51.45933468;7.33152330;2023-06-10T09:10:34;27.50;46.00
9544;DHT22;30418;51.45933468;7.33152330;2023-06-10T09:13:03;27.60;46.60
9544;DHT22;30418;51.45933468;7.33152330;2023-06-10T09:15:31;27.70;46.00
9544;DHT22;30418;51.45933468;7.33152330;2023-06-10T09:18:01;27.70;45.90
9544;DHT22;30418;51.45933468;7.33152330;2023-06-10T09:20:32;27.80;45.90
9544;DHT22;30418;51.45933468;7.33152330;2023-06-10T09:23:01;27.90;45.90
9544;DHT22;30418;51.45933468;7.33152330;2023-06-10T09:25:35;27.90;45.90
9544;DHT22;30418;51.45933468;7.33152330;2023-06-10T09:28:06;28.00;45.80
9544;DHT22;30418;51.45933468;7.33152330;2023-06-10T09:30:41;28.00;45.80
9544;DHT22;30418;51.45933468;7.33152330;2023-06-10T09:33:12;28.10;45.80
9544;DHT22;30418;51.45933468;7.33152330;2023-06-10T09:35:47;28.20;45.90
9544;DHT22;30418;51.45933468;7.33152330;2023-06-10T09:38:20;28.30;45.90
9544;DHT22;30418;51.45933468;7.33152330;2023-06-10T09:40:50;28.30;45.80
9544;DHT22;30418;51.45933468;7.33152330;2023-06-10T09:43:19;28.40;45.60
9544;DHT22;30418;51.45933468;7.33152330;2023-06-10T09:45:48;28.50;45.60
9544;DHT22;30418;51.45933468;7.33152330;2023-06-10T09:48:22;28.50;45.70
9544;DHT22;30418;51.45933468;7.33152330;2023-06-10T09:50:51;28.60;45.50
9544;DHT22;30418;51.45933468;7.33152330;2023-06-10T09:53:20;28.60;45.40
9544;DHT22;30418;51.45933468;7.33152330;2023-06-10T09:55:50;28.70;45.10
9544;DHT22;30418;51.45933468;7.33152330;2023-06-10T09:58:34;28.70;45.10
9544;DHT22;30418;51.45933468;7.33152330;2023-06-10T10:01:06;28.80;45.40
9544;DHT22;30418;51.45933468;7.33152330;2023-06-10T10:03:53;28.90;44.70
9544;DHT22;30418;51.45933468;7.33152330;2023-06-10T10:06:21;28.90;44.30
9544;DHT22;30418;51.45933468;7.33152330;2023-06-10T10:08:51;29.00;44.50
9544;DHT22;30418;51.45933468;7.33152330;2023-06-10T10:11:21;29.10;44.40
9544;DHT22;30418;51.45933468;7.33152330;2023-06-10T10:13:51;29.10;44.30
9544;DHT22;30418;51.45933468;7.33152330;2023-06-10T10:16:21;29.20;44.10
9544;DHT22;30418;51.45933468;7.33152330;2023-06-10T10:19:01;29.20;44.00
9544;DHT22;30418;51.45933468;7.33152330;2023-06-10T10:21:37;29.30;43.90
9544;DHT22;30418;51.45933468;7.33152330;2023-06-10T10:24:15;29.30;43.80
9544;DHT22;30418;51.45933468;7.33152330;2023-06-10T10:26:47;29.30;43.80
9544;DHT22;30418;51.45933468;7.33152330;2023-06-10T10:29:22;29.40;44.00
9544;DHT22;30418;51.45933468;7.33152330;2023-06-10T10:31:54;29.40;43.80
9544;DHT22;30418;51.45933468;7.33152330;2023-06-10T10:34:32;29.50;43.70
9544;DHT22;30418;51.45933468;7.33152330;2023-06-10T10:37:04;29.60;43.40
9544;DHT22;30418;51.45933468;7.33152330;2023-06-10T10:39:34;29.60;43.60
9544;DHT22;30418;51.45933468;7.33152330;2023-06-10T10:42:03;29.70;43.30
9544;DHT22;30418;51.45933468;7.33152330;2023-06-10T10:44:37;29.80;43.10
9544;DHT22;30418;51.45933468;7.33152330;2023-06-10T10:47:08;29.90;43.10
9544;DHT22;30418;51.45933468;7.33152330;2023-06-10T10:49:39;29.90;42.80
9544;DHT22;30418;51.45933468;7.33152330;2023-06-10T10:52:12;29.90;42.60
9544;DHT22;30418;51.45933468;7.33152330;2023-06-10T10:54:44;30.00;42.50
9544;DHT22;30418;51.45933468;7.33152330;2023-06-10T10:57:14;30.10;42.20
9544;DHT22;30418;51.45933468;7.33152330;2023-06-10T10:59:58;30.10;42.50
9544;DHT22;30418;51.45933468;7.33152330;2023-06-10T11:02:35;30.20;41.90
9544;DHT22;30418;51.45933468;7.33152330;2023-06-10T11:05:08;30.30;42.00
9544;DHT22;30418;51.45933468;7.33152330;2023-06-10T11:07:38;30.40;42.00
9544;DHT22;30418;51.45933468;7.33152330;2023-06-10T11:10:08;30.40;41.80
9544;DHT22;30418;51.45933468;7.33152330;2023-06-10T11:12:49;30.40;41.60
9544;DHT22;30418;51.45933468;7.33152330;2023-06-10T11:15:22;30.40;41.30
9544;DHT22;30418;51.45933468;7.33152330;2023-06-10T11:18:12;30.50;41.60
9544;DHT22;30418;51.45933468;7.33152330;2023-06-10T11:20:44;30.50;41.40
9544;DHT22;30418;51.45933468;7.33152330;2023-06-10T11:23:25;30.50;41.60
9544;DHT22;30418;51.45933468;7.33152330;2023-06-10T11:26:10;30.50;41.30
9544;DHT22;30418;51.45933468;7.33152330;2023-06-10T11:29:08;30.60;41.40
9544;DHT22;30418;51.45933468;7.33152330;2023-06-10T11:31:45;30.60;40.90
9544;DHT22;30418;51.45933468;7.33152330;2023-06-10T11:34:22;30.70;41.10
9544;DHT22;30418;51.45933468;7.33152330;2023-06-10T11:36:56;30.70;41.00
9544;DHT22;30418;51.45933468;7.33152330;2023-06-10T11:39:26;30.70;40.70
9544;DHT22;30418;51.45933468;7.33152330;2023-06-10T11:41:56;30.80;41.00
9544;DHT22;30418;51.45933468;7.33152330;2023-06-10T11:44:28;30.90;41.00
9544;DHT22;30418;51.45933468;7.33152330;2023-06-10T11:46:59;30.90;40.60
9544;DHT22;30418;51.45933468;7.33152330;2023-06-10T11:49:27;31.00;40.50
9544;DHT22;30418;51.45933468;7.33152330;2023-06-10T11:51:57;31.00;40.60
9544;DHT22;30418;51.45933468;7.33152330;2023-06-10T11:54:26;31.10;40.20
9544;DHT22;30418;51.45933468;7.33152330;2023-06-10T11:56:58;31.20;40.10
9544;DHT22;30418;51.45933468;7.33152330;2023-06-10T11:59:27;31.20;39.90
9544;DHT22;30418;51.45933468;7.33152330;2023-06-10T12:01:57;31.20;40.00
9544;DHT22;30418;51.45933468;7.33152330;2023-06-10T12:04:25;31.20;39.90
9544;DHT22;30418;51.45933468;7.33152330;2023-06-10T12:06:54;31.30;39.90
9544;DHT22;30418;51.45933468;7.33152330;2023-06-10T12:09:25;31.30;39.60
9544;DHT22;30418;51.45933468;7.33152330;2023-06-10T12:11:57;31.30;39.40
9544;DHT22;30418;51.45933468;7.33152330;2023-06-10T12:14:49;31.30;39.10
9544;DHT22;30418;51.45933468;7.33152330;2023-06-10T12:17:20;31.30;38.50
9544;DHT22;30418;51.45933468;7.33152330;2023-06-10T12:19:50;31.30;39.10
9544;DHT22;30418;51.45933468;7.33152330;2023-06-10T12:22:18;31.30;39.20
9544;DHT22;30418;51.45933468;7.33152330;2023-06-10T12:25:00;31.30;39.30
9544;DHT22;30418;51.45933468;7.33152330;2023-06-10T12:27:30;31.40;39.00
9544;DHT22;30418;51.45933468;7.33152330;2023-06-10T12:30:01;31.40;39.00
9544;DHT22;30418;51.45933468;7.33152330;2023-06-10T12:32:36;31.50;39.00
9544;DHT22;30418;51.45933468;7.33152330;2023-06-10T12:35:09;31.50;38.90
9544;DHT22;30418;51.45933468;7.33152330;2023-06-10T12:37:40;31.50;38.90
9544;DHT22;30418;51.45933468;7.33152330;2023-06-10T12:40:12;31.50;38.90
9544;DHT22;30418;51.45933468;7.33152330;2023-06-10T12:42:40;31.60;38.70
9544;DHT22;30418;51.45933468;7.33152330;2023-06-10T12:45:10;31.60;38.60
9544;DHT22;30418;51.45933468;7.33152330;2023-06-10T12:47:40;31.60;38.50
9544;DHT22;30418;51.45933468;7.33152330;2023-06-10T12:50:10;31.70;38.70
9544;DHT22;30418;51.45933468;7.33152330;2023-06-10T12:52:40;31.80;38.50
9544;DHT22;30418;51.45933468;7.33152330;2023-06-10T12:55:11;31.80;38.30
9544;DHT22;30418;51.45933468;7.33152330;2023-06-10T12:57:48;31.90;38.20
9544;DHT22;30418;51.45933468;7.33152330;2023-06-10T13:00:18;31.90;37.90
9544;DHT22;30418;51.45933468;7.33152330;2023-06-10T13:02:48;32.00;37.70
9544;DHT22;30418;51.45933468;7.33152330;2023-06-10T13:05:18;32.00;37.70
9544;DHT22;30418;51.45933468;7.33152330;2023-06-10T13:07:48;32.00;37.50
9544;DHT22;30418;51.45933468;7.33152330;2023-06-10T13:10:18;32.10;37.70
9544;DHT22;30418;51.45933468;7.33152330;2023-06-10T13:12:51;32.20;37.50
9544;DHT22;30418;51.45933468;7.33152330;2023-06-10T13:15:21;32.10;37.60
9544;DHT22;30418;51.45933468;7.33152330;2023-06-10T13:17:50;32.20;37.60
9544;DHT22;30418;51.45933468;7.33152330;2023-06-10T13:20:19;32.30;37.50
9544;DHT22;30418;51.45933468;7.33152330;2023-06-10T13:22:49;32.30;37.40
9544;DHT22;30418;51.45933468;7.33152330;2023-06-10T13:25:19;32.30;37.20
9544;DHT22;30418;51.45933468;7.33152330;2023-06-10T13:27:48;32.40;37.10
9544;DHT22;30418;51.45933468;7.33152330;2023-06-10T13:30:17;32.40;37.70
9544;DHT22;30418;51.45933468;7.33152330;2023-06-10T13:32:45;32.50;36.70
9544;DHT22;30418;51.45933468;7.33152330;2023-06-10T13:35:14;32.50;36.60
9544;DHT22;30418;51.45933468;7.33152330;2023-06-10T13:37:42;32.50;36.40
9544;DHT22;30418;51.45933468;7.33152330;2023-06-10T13:40:12;32.50;36.40
9544;DHT22;30418;51.45933468;7.33152330;2023-06-10T13:42:42;32.60;36.50
9544;DHT22;30418;51.45933468;7.33152330;2023-06-10T13:45:11;32.60;36.50
9544;DHT22;30418;51.45933468;7.33152330;2023-06-10T13:47:41;32.60;36.60
9544;DHT22;30418;51.45933468;7.33152330;2023-06-10T13:50:10;32.60;36.60
9544;DHT22;30418;51.45933468;7.33152330;2023-06-10T13:52:40;32.70;36.30
9544;DHT22;30418;51.45933468;7.33152330;2023-06-10T13:55:09;32.70;36.40